createdAt,value
2022-10-17T00:01:44.706Z,20.95
2022-10-17T00:04:14.062Z,21.35
2022-10-17T00:06:43.546Z,22.00
2022-10-17T00:09:12.870Z,23.47
2022-10-17T00:11:42.336Z,24.65
2022-10-17T00:14:11.783Z,23.47
2022-10-17T00:16:41.121Z,27.67
2022-10-17T00:19:10.610Z,26.77
2022-10-17T00:21:40.090Z,22.67
2022-10-17T00:24:09.422Z,21.75
2022-10-17T00:26:38.669Z,25.40
2022-10-17T00:29:08.616Z,24.63
2022-10-17T00:31:38.018Z,22.70
2022-10-17T00:34:07.362Z,24.43
2022-10-17T00:36:36.575Z,27.35
2022-10-17T00:39:05.885Z,23.20
2022-10-17T00:41:36.047Z,24.47
2022-10-17T00:44:12.153Z,24.87
2022-10-17T00:46:41.627Z,23.18
2022-10-17T00:49:12.788Z,22.60
2022-10-17T00:51:47.957Z,24.75
2022-10-17T00:54:21.811Z,21.93
2022-10-17T00:56:51.903Z,24.10
2022-10-17T00:59:22.196Z,22.85
2022-10-17T01:02:07.132Z,24.77
2022-10-17T01:04:41.586Z,25.35
2022-10-17T01:07:12.003Z,24.87
2022-10-17T01:09:42.398Z,20.10
2022-10-17T01:12:27.509Z,22.65
2022-10-17T01:15:24.878Z,23.32
2022-10-17T01:18:06.055Z,22.25
2022-10-17T01:20:44.359Z,22.37
2022-10-17T01:23:30.780Z,20.35
2022-10-17T01:26:06.205Z,24.10
2022-10-17T01:29:10.993Z,27.20
2022-10-17T01:31:46.258Z,22.77
2022-10-17T01:34:19.661Z,25.97
2022-10-17T01:36:52.157Z,21.23
2022-10-17T01:39:29.968Z,21.50
2022-10-17T01:42:01.691Z,24.43
2022-10-17T01:44:57.632Z,25.20
2022-10-17T01:47:31.806Z,23.57
2022-10-17T01:50:08.718Z,22.52
2022-10-17T01:52:43.937Z,23.07
2022-10-17T01:55:22.079Z,23.98
2022-10-17T01:57:56.588Z,22.62
2022-10-17T02:00:27.632Z,22.15
2022-10-17T02:03:00.088Z,23.85
2022-10-17T02:05:34.831Z,23.92
2022-10-17T02:08:04.178Z,23.10
2022-10-17T02:10:42.588Z,24.40
2022-10-17T02:13:34.399Z,23.73
2022-10-17T02:16:18.889Z,21.25
2022-10-17T02:19:12.528Z,21.17
2022-10-17T02:22:04.673Z,22.17
2022-10-17T02:24:37.241Z,21.90
2022-10-17T02:29:52.183Z,19.67
2022-10-17T02:32:31.527Z,20.85
2022-10-17T02:35:03.834Z,21.93
2022-10-17T02:37:34.361Z,19.45
2022-10-17T02:40:05.114Z,21.80
2022-10-17T02:42:34.581Z,21.02
2022-10-17T02:45:05.564Z,20.00
2022-10-17T02:47:37.873Z,18.80
2022-10-17T02:50:08.552Z,23.18
2022-10-17T02:52:45.581Z,19.42
2022-10-17T02:55:21.872Z,21.62
2022-10-17T02:57:57.349Z,20.60
2022-10-17T03:00:27.956Z,23.38
2022-10-17T03:02:58.050Z,23.83
2022-10-17T03:05:29.864Z,21.20
2022-10-17T03:08:01.078Z,19.30
2022-10-17T03:10:30.467Z,20.75
2022-10-17T03:13:00.047Z,17.15
2022-10-17T03:15:29.702Z,18.65
2022-10-17T03:17:58.985Z,20.68
2022-10-17T03:20:28.729Z,23.80
2022-10-17T03:22:57.938Z,19.52
2022-10-17T03:25:27.517Z,18.62
2022-10-17T03:27:58.666Z,19.87
2022-10-17T03:30:28.948Z,21.00
2022-10-17T03:33:01.270Z,17.07
2022-10-17T03:35:30.838Z,17.27
2022-10-17T03:38:00.721Z,18.12
2022-10-17T03:40:31.275Z,20.62
2022-10-17T03:43:00.911Z,18.77
2022-10-17T03:45:31.406Z,16.70
2022-10-17T03:48:01.750Z,18.00
2022-10-17T03:50:31.388Z,16.48
2022-10-17T03:53:01.303Z,17.60
2022-10-17T03:55:30.716Z,21.60
2022-10-17T03:58:00.156Z,21.45
2022-10-17T04:00:30.100Z,17.57
2022-10-17T04:03:00.002Z,17.45
2022-10-17T04:05:29.484Z,14.85
2022-10-17T04:08:02.376Z,16.67
2022-10-17T04:10:31.795Z,16.32
2022-10-17T04:13:01.571Z,17.48
2022-10-17T04:15:31.012Z,17.52
2022-10-17T04:18:00.559Z,15.53
2022-10-17T04:20:30.849Z,16.93
2022-10-17T04:23:00.960Z,16.10
2022-10-17T04:25:33.406Z,14.28
2022-10-17T04:28:01.767Z,14.87
2022-10-17T04:30:31.083Z,16.70
2022-10-17T04:33:00.761Z,17.40
2022-10-17T04:35:30.664Z,14.58
2022-10-17T04:38:01.758Z,16.97
2022-10-17T04:40:31.403Z,14.55
2022-10-17T04:43:01.384Z,16.20
2022-10-17T04:45:32.345Z,15.78
2022-10-17T04:48:03.397Z,18.85
2022-10-17T04:50:32.775Z,18.42
2022-10-17T04:53:22.296Z,14.25
2022-10-17T04:55:51.936Z,17.77
2022-10-17T04:58:22.769Z,16.85
2022-10-17T05:00:52.663Z,19.30
2022-10-17T05:03:26.646Z,16.15
2022-10-17T05:05:56.576Z,19.05
2022-10-17T05:08:26.196Z,17.00
2022-10-17T05:10:55.761Z,16.93
2022-10-17T05:13:25.702Z,15.85
2022-10-17T05:15:57.341Z,13.80
2022-10-17T05:18:26.768Z,16.27
2022-10-17T05:20:56.805Z,13.00
2022-10-17T05:23:26.689Z,12.58
2022-10-17T05:25:56.505Z,15.23
2022-10-17T05:28:26.341Z,18.17
2022-10-17T05:30:57.515Z,17.77
2022-10-17T05:33:27.504Z,16.55
2022-10-17T05:35:57.195Z,14.15
2022-10-17T05:38:27.336Z,13.95
2022-10-17T05:41:01.043Z,13.30
2022-10-17T05:43:31.159Z,15.45
2022-10-17T05:46:02.301Z,16.87
2022-10-17T05:48:31.735Z,16.62
2022-10-17T05:51:03.860Z,15.78
2022-10-17T05:53:35.320Z,17.25
2022-10-17T05:56:08.207Z,17.15
2022-10-17T05:58:54.109Z,20.65
2022-10-17T06:01:16.276Z,18.12
2022-10-17T06:03:45.638Z,15.35
2022-10-17T06:06:16.862Z,18.20
2022-10-17T06:08:47.483Z,17.48
2022-10-17T06:11:18.643Z,13.83
2022-10-17T06:13:48.640Z,19.00
2022-10-17T06:16:19.655Z,18.57
2022-10-17T06:21:22.428Z,17.37
2022-10-17T06:23:53.246Z,17.50
2022-10-17T06:26:24.689Z,17.37
2022-10-17T06:28:55.971Z,15.28
2022-10-17T06:31:26.543Z,20.00
2022-10-17T06:33:55.951Z,18.87
2022-10-17T06:36:25.252Z,18.95
2022-10-17T06:38:54.529Z,15.32
2022-10-17T06:41:25.494Z,14.75
2022-10-17T06:43:55.955Z,16.52
2022-10-17T06:46:43.470Z,16.45
2022-10-17T06:49:14.730Z,14.18
2022-10-17T06:51:52.046Z,18.00
2022-10-17T06:54:23.117Z,17.90
2022-10-17T06:57:12.540Z,16.05
2022-10-17T06:59:43.593Z,13.30
2022-10-17T07:02:14.538Z,15.13
2022-10-17T07:04:47.836Z,18.15
2022-10-17T07:07:17.235Z,20.08
2022-10-17T07:09:46.855Z,14.58
2022-10-17T07:12:18.010Z,18.10
2022-10-17T07:14:47.433Z,16.95
2022-10-17T07:17:17.193Z,15.23
2022-10-17T07:19:47.023Z,15.58
2022-10-17T07:22:16.614Z,18.17
2022-10-17T07:24:47.821Z,16.17
2022-10-17T07:27:18.791Z,16.70
2022-10-17T07:29:48.983Z,17.85
2022-10-17T07:32:22.753Z,19.98
2022-10-17T07:34:52.009Z,17.55
2022-10-17T07:37:21.628Z,19.02
2022-10-17T07:39:52.742Z,21.45
2022-10-17T07:42:22.057Z,19.02
2022-10-17T07:44:52.223Z,19.70
2022-10-17T07:47:22.467Z,20.57
2022-10-17T07:49:51.971Z,20.05
2022-10-17T07:52:21.284Z,21.35
2022-10-17T07:54:50.804Z,17.48
2022-10-17T07:57:20.046Z,21.45
2022-10-17T07:59:50.845Z,20.43
2022-10-17T08:02:23.651Z,22.45
2022-10-17T08:04:53.731Z,23.55
2022-10-17T08:07:28.376Z,24.27
2022-10-17T08:09:55.126Z,25.52
2022-10-17T08:12:26.172Z,23.25
2022-10-17T08:14:55.540Z,27.02
2022-10-17T08:17:24.880Z,25.40
2022-10-17T08:19:54.200Z,29.00
2022-10-17T08:22:23.728Z,26.05
2022-10-17T08:24:52.957Z,22.37
2022-10-17T08:27:23.829Z,28.85
2022-10-17T08:29:54.337Z,26.40
2022-10-17T08:32:26.314Z,26.82
2022-10-17T08:34:56.168Z,27.95
2022-10-17T08:37:25.675Z,27.17
2022-10-17T08:39:55.082Z,26.15
2022-10-17T08:42:59.580Z,24.92
2022-10-17T08:45:32.124Z,27.87
2022-10-17T08:50:45.523Z,26.97
2022-10-17T08:53:32.678Z,28.65
2022-10-17T08:56:07.194Z,28.83
2022-10-17T08:58:38.331Z,29.50
2022-10-17T09:01:27.573Z,31.62
2022-10-17T09:03:59.993Z,29.32
2022-10-17T09:06:37.897Z,28.12
2022-10-17T09:09:16.050Z,27.85
2022-10-17T09:12:25.164Z,28.17
2022-10-17T09:15:16.141Z,29.55
2022-10-17T09:18:03.447Z,28.73
2022-10-17T09:20:44.946Z,33.38
2022-10-17T09:23:20.307Z,29.37
2022-10-17T09:25:54.791Z,29.80
2022-10-17T09:28:35.243Z,33.23
2022-10-17T09:31:13.870Z,33.78
2022-10-17T09:34:00.737Z,35.40
2022-10-17T09:36:19.632Z,28.92
2022-10-17T09:38:58.171Z,29.92
2022-10-17T09:41:51.351Z,30.70
2022-10-17T09:44:35.238Z,31.40
2022-10-17T09:47:13.760Z,30.40
2022-10-17T09:49:45.833Z,28.45
2022-10-17T09:52:29.866Z,26.62
2022-10-17T09:55:02.192Z,27.17
2022-10-17T09:57:34.645Z,25.15
2022-10-17T10:00:06.479Z,24.20
2022-10-17T10:02:45.032Z,26.07
2022-10-17T10:05:20.524Z,22.07
2022-10-17T10:08:05.438Z,27.65
2022-10-17T10:10:35.131Z,22.25
2022-10-17T10:13:10.491Z,24.15
2022-10-17T10:15:42.059Z,24.45
2022-10-17T10:18:37.705Z,23.55
2022-10-17T10:21:09.622Z,23.95
2022-10-17T10:23:41.078Z,24.02
2022-10-17T10:26:22.239Z,24.25
2022-10-17T10:29:03.288Z,20.68
2022-10-17T10:31:38.516Z,18.75
2022-10-17T10:34:22.975Z,20.72
2022-10-17T10:36:58.282Z,19.48
2022-10-17T10:39:42.710Z,17.57
2022-10-17T10:42:26.403Z,18.98
2022-10-17T10:45:01.134Z,17.30
2022-10-17T10:47:32.437Z,18.32
2022-10-17T10:50:28.029Z,19.20
2022-10-17T10:53:00.433Z,20.40
2022-10-17T10:55:35.710Z,17.73
2022-10-17T10:58:08.147Z,20.40
2022-10-17T11:00:39.213Z,20.02
2022-10-17T11:03:17.170Z,20.57
2022-10-17T11:05:52.489Z,24.15
2022-10-17T11:08:28.000Z,17.42
2022-10-17T11:11:31.076Z,21.33
2022-10-17T11:14:07.468Z,20.65
2022-10-17T11:16:41.273Z,21.75
2022-10-17T11:19:20.003Z,19.85
2022-10-17T11:22:04.205Z,22.07
2022-10-17T11:24:42.252Z,18.35
2022-10-17T11:27:11.580Z,17.73
2022-10-17T11:29:42.062Z,19.15
2022-10-17T11:32:14.528Z,19.02
2022-10-17T11:34:53.257Z,20.12
2022-10-17T11:37:26.054Z,17.95
2022-10-17T11:39:58.645Z,17.67
2022-10-17T11:45:07.758Z,20.35
2022-10-17T11:47:48.299Z,20.62
2022-10-17T11:53:06.434Z,15.18
2022-10-17T11:55:37.895Z,13.98
2022-10-17T11:58:31.426Z,18.62
2022-10-17T12:01:16.206Z,15.55
2022-10-17T12:04:22.225Z,15.63
2022-10-17T12:07:01.084Z,15.00
2022-10-17T12:09:50.513Z,13.08
2022-10-17T12:12:31.374Z,12.33
2022-10-17T12:15:23.531Z,14.28
2022-10-17T12:18:03.835Z,13.98
2022-10-17T12:20:35.663Z,14.63
2022-10-17T12:23:13.788Z,14.10
2022-10-17T12:26:04.863Z,13.38
2022-10-17T12:28:43.771Z,14.47
2022-10-17T12:31:23.183Z,15.45
2022-10-17T12:33:55.369Z,15.00
2022-10-17T12:36:30.749Z,17.45
2022-10-17T12:39:07.981Z,16.57
2022-10-17T12:41:44.806Z,16.48
2022-10-17T12:44:21.926Z,18.12
2022-10-17T12:46:54.458Z,19.23
2022-10-17T12:52:22.529Z,17.48
2022-10-17T12:55:00.590Z,17.32
2022-10-17T12:57:48.862Z,18.87
2022-10-17T13:00:36.236Z,19.77
2022-10-17T13:03:17.311Z,15.15
2022-10-17T13:05:55.510Z,17.35
2022-10-17T13:08:31.021Z,17.57
2022-10-17T13:11:00.504Z,21.20
2022-10-17T13:13:44.528Z,16.12
2022-10-17T13:16:31.201Z,19.10
2022-10-17T13:19:02.071Z,17.42
2022-10-17T13:21:31.739Z,20.52
2022-10-17T13:24:01.241Z,18.23
2022-10-17T13:26:30.862Z,19.45
2022-10-17T13:29:13.964Z,15.90
2022-10-17T13:31:45.276Z,14.35
2022-10-17T13:34:22.426Z,16.12
2022-10-17T13:36:57.042Z,16.45
2022-10-17T13:39:44.788Z,16.40
2022-10-17T13:41:59.848Z,15.45
2022-10-17T13:44:32.096Z,16.42
2022-10-17T13:47:01.568Z,13.65
2022-10-17T13:49:41.844Z,14.83
2022-10-17T13:52:19.360Z,18.67
2022-10-17T13:54:54.032Z,14.28
2022-10-17T13:57:25.890Z,14.65
2022-10-17T13:59:58.077Z,16.17
2022-10-17T14:02:30.851Z,15.70
2022-10-17T14:05:19.223Z,14.30
2022-10-17T14:08:15.208Z,15.03
2022-10-17T14:10:38.943Z,14.40
2022-10-17T14:13:11.204Z,15.18
2022-10-17T14:15:43.951Z,15.53
2022-10-17T14:18:15.237Z,14.07
2022-10-17T14:23:38.501Z,14.25
2022-10-17T14:26:13.086Z,13.78
2022-10-17T14:28:44.867Z,15.83
2022-10-17T14:31:25.049Z,19.00
2022-10-17T14:33:55.333Z,15.03
2022-10-17T14:36:35.826Z,15.18
2022-10-17T14:39:11.835Z,13.98
2022-10-17T14:41:44.011Z,14.75
2022-10-17T14:46:47.309Z,18.77
2022-10-17T14:49:23.388Z,13.98
2022-10-17T14:52:16.745Z,15.08
2022-10-17T14:54:46.577Z,13.38
2022-10-17T14:57:22.374Z,13.43
2022-10-17T14:59:54.571Z,14.58
2022-10-17T15:02:23.307Z,13.95
2022-10-17T15:04:53.187Z,14.13
2022-10-17T15:07:23.553Z,12.25
2022-10-17T15:09:54.178Z,15.20
2022-10-17T15:12:25.649Z,11.93
2022-10-17T15:14:55.407Z,13.40
2022-10-17T15:17:34.760Z,16.65
2022-10-17T15:20:04.224Z,18.42
2022-10-17T15:22:35.226Z,13.75
2022-10-17T15:25:05.043Z,14.93
2022-10-17T15:27:34.375Z,15.20
2022-10-17T15:30:03.994Z,14.35
2022-10-17T15:32:33.471Z,15.50
2022-10-17T15:35:03.729Z,16.75
2022-10-17T15:37:34.653Z,16.80
2022-10-17T15:40:04.223Z,17.80
2022-10-17T15:42:33.420Z,16.15
2022-10-17T15:45:03.020Z,15.90
2022-10-17T15:47:34.305Z,17.45
2022-10-17T15:50:06.001Z,17.87
2022-10-17T15:52:35.999Z,28.30
2022-10-17T15:55:05.721Z,37.98
2022-10-17T15:57:40.328Z,24.87
2022-10-17T16:00:22.995Z,18.57
2022-10-17T16:02:52.533Z,17.50
2022-10-17T16:05:25.817Z,16.55
2022-10-17T16:07:55.524Z,20.60
2022-10-17T16:10:26.985Z,19.27
2022-10-17T16:12:56.696Z,18.35
2022-10-17T16:15:28.112Z,17.00
2022-10-17T16:18:01.632Z,17.17
2022-10-17T16:20:29.569Z,19.02
2022-10-17T16:23:00.446Z,20.35
2022-10-17T16:25:31.084Z,19.27
2022-10-17T16:28:01.374Z,19.60
2022-10-17T16:30:32.832Z,20.80
2022-10-17T16:33:02.120Z,19.95
2022-10-17T16:35:36.542Z,21.52
2022-10-17T16:38:03.422Z,19.45
2022-10-17T16:40:32.793Z,20.10
2022-10-17T16:43:02.214Z,22.95
2022-10-17T16:45:32.029Z,23.18
2022-10-17T16:48:01.550Z,27.52
2022-10-17T16:50:32.781Z,24.67
2022-10-17T16:53:03.843Z,24.67
2022-10-17T16:55:33.097Z,24.18
2022-10-17T16:58:02.469Z,25.27
2022-10-17T17:00:32.130Z,26.77
2022-10-17T17:03:01.666Z,30.57
2022-10-17T17:05:30.994Z,25.90
2022-10-17T17:08:01.047Z,31.07
2022-10-17T17:10:30.332Z,30.12
2022-10-17T17:13:01.199Z,30.92
2022-10-17T17:15:30.510Z,35.88
2022-10-17T17:18:04.857Z,36.35
2022-10-17T17:20:31.056Z,36.45
2022-10-17T17:23:00.538Z,33.78
2022-10-17T17:25:29.952Z,35.52
2022-10-17T17:27:59.320Z,35.23
2022-10-17T17:30:29.893Z,38.20
2022-10-17T17:33:00.605Z,39.83
2022-10-17T17:35:31.686Z,41.70
2022-10-17T17:38:03.109Z,37.98
2022-10-17T17:40:34.149Z,38.28
2022-10-17T17:43:04.132Z,42.53
2022-10-17T17:45:33.533Z,41.28
2022-10-17T17:48:02.801Z,41.20
2022-10-17T17:50:32.983Z,41.13
2022-10-17T17:53:02.376Z,41.18
2022-10-17T17:55:31.846Z,39.65
2022-10-17T17:58:01.374Z,40.28
2022-10-17T18:00:30.965Z,42.93
2022-10-17T18:03:00.478Z,38.28
2022-10-17T18:05:31.191Z,42.17
2022-10-17T18:08:00.641Z,42.23
2022-10-17T18:10:30.809Z,37.60
2022-10-17T18:13:00.313Z,45.35
2022-10-17T18:15:29.741Z,47.65
2022-10-17T18:17:59.186Z,53.20
2022-10-17T18:20:28.621Z,48.15
2022-10-17T18:23:00.610Z,47.90
2022-10-17T18:25:29.023Z,48.92
2022-10-17T18:27:58.377Z,48.75
2022-10-17T18:30:28.954Z,51.18
2022-10-17T18:32:58.714Z,50.20
2022-10-17T18:35:28.381Z,50.45
2022-10-17T18:37:57.684Z,42.95
2022-10-17T18:40:28.301Z,44.85
2022-10-17T18:42:57.897Z,44.90
2022-10-17T18:45:26.696Z,46.02
2022-10-17T18:47:55.946Z,46.35
2022-10-17T18:50:26.179Z,46.92
2022-10-17T18:52:55.434Z,47.50
2022-10-17T18:55:25.003Z,48.98
2022-10-17T18:57:54.259Z,49.70
2022-10-17T19:00:23.594Z,49.95
2022-10-17T19:02:53.275Z,48.00
2022-10-17T19:05:22.763Z,43.63
2022-10-17T19:07:52.083Z,45.50
2022-10-17T19:10:21.723Z,47.98
2022-10-17T19:12:53.254Z,48.25
2022-10-17T19:15:25.838Z,46.30
2022-10-17T19:17:53.696Z,46.25
2022-10-17T19:20:22.974Z,47.13
2022-10-17T19:25:22.794Z,45.25
2022-10-17T19:27:52.782Z,50.98
2022-10-17T19:30:22.452Z,44.85
2022-10-17T19:32:52.482Z,47.67
2022-10-17T19:35:22.033Z,45.45
2022-10-17T19:37:51.500Z,46.90
2022-10-17T19:40:21.140Z,53.00
2022-10-17T19:42:50.697Z,42.48
2022-10-17T19:45:20.137Z,45.25
2022-10-17T19:47:49.443Z,43.65
2022-10-17T19:50:18.903Z,44.67
2022-10-17T19:52:49.023Z,44.20
2022-10-17T19:55:18.554Z,47.70
2022-10-17T19:57:48.599Z,46.08
2022-10-17T20:00:18.335Z,43.28
2022-10-17T20:02:47.581Z,39.83
2022-10-17T20:05:18.915Z,37.98
2022-10-17T20:07:48.523Z,41.05
2022-10-17T20:10:18.945Z,37.50
2022-10-17T20:12:48.534Z,37.90
2022-10-17T20:15:18.147Z,49.08
2022-10-17T20:17:47.673Z,47.67
2022-10-17T20:20:17.489Z,47.95
2022-10-17T20:22:46.998Z,43.98
2022-10-17T20:25:16.651Z,39.92
2022-10-17T20:27:46.381Z,40.23
2022-10-17T20:30:15.972Z,38.60
2022-10-17T20:32:45.248Z,45.98
2022-10-17T20:35:14.525Z,43.85
2022-10-17T20:37:43.950Z,40.80
2022-10-17T20:40:34.281Z,42.78
2022-10-17T20:42:44.864Z,41.37
2022-10-17T20:45:14.943Z,37.70
2022-10-17T20:47:48.163Z,38.63
2022-10-17T20:50:15.450Z,46.30
2022-10-17T20:52:44.794Z,43.23
2022-10-17T20:55:14.359Z,36.13
2022-10-17T20:57:43.639Z,37.60
2022-10-17T21:00:13.811Z,44.60
2022-10-17T21:02:43.255Z,43.28
2022-10-17T21:05:13.766Z,41.80
2022-10-17T21:07:43.213Z,41.08
2022-10-17T21:10:34.316Z,46.23
2022-10-17T21:12:53.917Z,47.70
2022-10-17T21:15:14.538Z,48.68
2022-10-17T21:17:43.811Z,44.03
2022-10-17T21:20:13.721Z,44.88
2022-10-17T21:22:42.968Z,49.33
2022-10-17T21:25:12.262Z,42.88
2022-10-17T21:27:41.939Z,50.50
2022-10-17T21:30:11.830Z,46.55
2022-10-17T21:32:57.080Z,49.20
2022-10-17T21:35:12.987Z,46.40
2022-10-17T21:37:42.397Z,53.50
2022-10-17T21:40:13.070Z,53.78
2022-10-17T21:42:42.655Z,49.03
2022-10-17T21:45:15.587Z,50.45
2022-10-17T21:47:54.950Z,54.88
2022-10-17T21:50:13.971Z,49.88
2022-10-17T21:52:43.419Z,57.33
2022-10-17T21:55:12.664Z,56.65
2022-10-17T21:57:42.134Z,62.23
2022-10-17T22:00:12.908Z,57.60
2022-10-17T22:02:41.621Z,56.08
2022-10-17T22:05:11.160Z,55.73
2022-10-17T22:07:40.412Z,55.15
2022-10-17T22:10:10.284Z,61.45
2022-10-17T22:12:39.521Z,49.45
2022-10-17T22:15:09.746Z,55.75
2022-10-17T22:17:38.973Z,56.25
2022-10-17T22:20:09.055Z,58.33
2022-10-17T22:22:38.470Z,53.95
2022-10-17T22:25:08.434Z,62.50
2022-10-17T22:27:37.857Z,53.90
2022-10-17T22:30:08.322Z,56.45
2022-10-17T22:32:37.763Z,59.73
2022-10-17T22:35:08.337Z,56.45
2022-10-17T22:37:37.736Z,61.18
2022-10-17T22:40:08.279Z,59.88
2022-10-17T22:42:37.530Z,74.05
2022-10-17T22:45:08.338Z,69.00
2022-10-17T22:47:37.605Z,72.60
2022-10-17T22:50:07.133Z,65.87
2022-10-17T22:52:36.451Z,65.92
2022-10-17T22:55:06.326Z,61.50
2022-10-17T22:57:36.312Z,72.10
2022-10-17T23:00:07.687Z,65.20
2022-10-17T23:02:36.987Z,66.77
2022-10-17T23:05:07.706Z,63.38
2022-10-17T23:07:37.124Z,67.87
2022-10-17T23:10:07.620Z,70.70
2022-10-17T23:12:37.004Z,70.20
2022-10-17T23:15:07.191Z,70.00
2022-10-17T23:17:36.417Z,68.40
2022-10-17T23:20:06.323Z,72.90
2022-10-17T23:22:35.539Z,73.80
2022-10-17T23:25:05.553Z,73.55
2022-10-17T23:27:36.306Z,75.55
2022-10-17T23:30:06.669Z,74.87
2022-10-17T23:32:35.953Z,74.55
2022-10-17T23:35:06.271Z,70.10
2022-10-17T23:37:36.021Z,65.75
2022-10-17T23:40:06.921Z,77.62
2022-10-17T23:42:36.246Z,73.78
2022-10-17T23:45:06.224Z,64.35
2022-10-17T23:47:35.466Z,67.72
2022-10-17T23:50:05.943Z,73.10
2022-10-17T23:52:35.222Z,71.50
2022-10-17T23:55:05.080Z,65.90
2022-10-17T23:57:34.503Z,62.13
